createdAt,value
2019-03-06T00:01:11.856Z,100477.00
2019-03-06T00:03:41.850Z,100466.00
2019-03-06T00:06:16.677Z,100464.00
2019-03-06T00:08:42.824Z,100462.00
2019-03-06T00:11:13.024Z,100462.00
2019-03-06T00:13:42.497Z,100456.00
2019-03-06T00:16:12.081Z,100454.00
2019-03-06T00:18:41.621Z,100457.00
2019-03-06T00:21:14.228Z,100448.00
2019-03-06T00:23:43.959Z,100444.00
2019-03-06T00:26:13.529Z,100439.00
2019-03-06T00:28:42.986Z,100437.00
2019-03-06T00:31:12.539Z,100438.00
2019-03-06T00:33:42.009Z,100428.00
2019-03-06T00:36:13.101Z,100433.00
2019-03-06T00:38:42.591Z,100423.00
2019-03-06T00:41:29.723Z,100421.00
2019-03-06T00:43:59.571Z,100418.00
2019-03-06T00:46:29.188Z,100414.00
2019-03-06T00:48:58.729Z,100414.00
2019-03-06T00:51:28.197Z,100412.00
2019-03-06T00:53:57.695Z,100406.00
2019-03-06T00:56:27.440Z,100412.00
2019-03-06T00:58:56.966Z,100411.00
2019-03-06T01:01:26.596Z,100412.00
2019-03-06T01:03:56.263Z,100402.00
2019-03-06T01:06:27.325Z,100403.00
2019-03-06T01:08:56.881Z,100401.00
2019-03-06T01:11:26.478Z,100403.00
2019-03-06T01:13:55.988Z,100401.00
2019-03-06T01:16:25.497Z,100394.00
2019-03-06T01:18:54.955Z,100382.00
2019-03-06T01:21:24.473Z,100384.00
2019-03-06T01:23:53.967Z,100387.00
2019-03-06T01:26:23.625Z,100382.00
2019-03-06T01:28:53.118Z,100374.00
2019-03-06T01:31:22.686Z,100372.00
2019-03-06T01:33:57.029Z,100369.00
2019-03-06T01:36:30.648Z,100365.00
2019-03-06T01:39:19.721Z,100367.00
2019-03-06T01:41:56.753Z,100358.00
2019-03-06T01:44:27.844Z,100360.00
2019-03-06T01:46:57.279Z,100355.00
2019-03-06T01:49:26.728Z,100348.00
2019-03-06T01:51:56.168Z,100336.00
2019-03-06T01:54:25.602Z,100342.00
2019-03-06T01:56:55.211Z,100336.00
2019-03-06T01:59:24.685Z,100337.00
2019-03-06T02:01:54.146Z,100332.00
2019-03-06T02:04:23.709Z,100320.00
2019-03-06T02:06:53.244Z,100314.00
2019-03-06T02:09:23.661Z,100319.00
2019-03-06T02:11:53.120Z,100311.00
2019-03-06T02:14:22.749Z,100315.00
2019-03-06T02:16:52.158Z,100306.00
2019-03-06T02:19:21.584Z,100300.00
2019-03-06T02:21:51.241Z,100299.00
2019-03-06T02:24:20.869Z,100301.00
2019-03-06T02:26:52.546Z,100286.00
2019-03-06T02:29:21.955Z,100288.00
2019-03-06T02:31:51.392Z,100277.00
2019-03-06T02:34:20.886Z,100281.00
2019-03-06T02:36:50.604Z,100271.00
2019-03-06T02:39:20.067Z,100264.00
2019-03-06T02:41:49.489Z,100267.00
2019-03-06T02:44:18.942Z,100263.00
2019-03-06T02:46:48.389Z,100263.00
2019-03-06T02:49:18.004Z,100251.00
2019-03-06T02:51:47.498Z,100241.00
2019-03-06T02:54:18.495Z,100232.00
2019-03-06T02:56:47.977Z,100231.00
2019-03-06T02:59:20.001Z,100232.00
2019-03-06T03:01:53.799Z,100230.00
2019-03-06T03:04:24.905Z,100232.00
2019-03-06T03:06:58.753Z,100226.00
2019-03-06T03:09:28.216Z,100229.00
2019-03-06T03:11:57.834Z,100223.00
2019-03-06T03:14:27.331Z,100224.00
2019-03-06T03:16:56.895Z,100221.00
2019-03-06T03:19:26.409Z,100216.00
2019-03-06T03:21:55.672Z,100214.00
2019-03-06T03:24:25.221Z,100214.00
2019-03-06T03:26:54.809Z,100208.00
2019-03-06T03:29:24.284Z,100210.00
2019-03-06T03:31:53.818Z,100204.00
2019-03-06T03:34:23.342Z,100207.00
2019-03-06T03:36:53.095Z,100202.00
2019-03-06T03:39:22.551Z,100198.00
2019-03-06T03:41:52.092Z,100197.00
2019-03-06T03:44:21.624Z,100190.00
2019-03-06T03:46:51.239Z,100195.00
2019-03-06T03:49:20.894Z,100184.00
2019-03-06T03:51:50.440Z,100176.00
2019-03-06T03:54:20.020Z,100178.00
2019-03-06T03:56:49.511Z,100171.00
2019-03-06T03:59:19.033Z,100165.00
2019-03-06T04:01:49.016Z,100161.00
2019-03-06T04:04:18.512Z,100172.00
2019-03-06T04:06:48.044Z,100164.00
2019-03-06T04:09:17.558Z,100169.00
2019-03-06T04:11:47.114Z,100164.00
2019-03-06T04:14:16.754Z,100170.00
2019-03-06T04:16:46.207Z,100163.00
2019-03-06T04:19:15.672Z,100164.00
2019-03-06T04:21:45.207Z,100169.00
2019-03-06T04:24:14.652Z,100164.00
2019-03-06T04:26:44.467Z,100158.00
2019-03-06T04:29:14.072Z,100143.00
2019-03-06T04:31:43.559Z,100142.00
2019-03-06T04:34:13.029Z,100144.00
2019-03-06T04:36:42.561Z,100131.00
2019-03-06T04:39:12.248Z,100121.00
2019-03-06T04:41:41.779Z,100125.00
2019-03-06T04:44:11.394Z,100106.00
2019-03-06T04:46:40.897Z,100106.00
2019-03-06T04:49:10.412Z,100107.00
2019-03-06T04:51:39.903Z,100090.00
2019-03-06T04:54:09.408Z,100091.00
2019-03-06T04:56:38.923Z,100077.00
2019-03-06T04:59:08.346Z,100069.00
2019-03-06T05:01:37.907Z,100077.00
2019-03-06T05:04:07.409Z,100081.00
2019-03-06T05:06:36.895Z,100080.00
2019-03-06T05:09:07.546Z,100073.00
2019-03-06T05:11:36.972Z,100067.00
2019-03-06T05:14:06.492Z,100074.00
2019-03-06T05:16:43.600Z,100059.00
2019-03-06T05:19:13.123Z,100056.00
2019-03-06T05:21:42.590Z,100046.00
2019-03-06T05:24:12.064Z,100032.00
2019-03-06T05:26:41.526Z,100026.00
2019-03-06T05:29:11.004Z,100018.00
2019-03-06T05:31:42.020Z,100007.00
2019-03-06T05:34:11.489Z,100005.00
2019-03-06T05:36:54.019Z,99996.00
2019-03-06T05:39:23.519Z,99992.00
2019-03-06T05:41:53.005Z,99987.00
2019-03-06T05:44:22.518Z,99980.00
2019-03-06T05:46:51.984Z,99973.00
2019-03-06T05:49:21.451Z,99968.00
2019-03-06T05:51:50.976Z,99967.00
2019-03-06T05:54:20.445Z,99956.00
2019-03-06T05:56:49.972Z,99964.00
2019-03-06T05:59:19.699Z,99963.00
2019-03-06T06:01:49.221Z,99958.00
2019-03-06T06:04:18.688Z,99958.00
2019-03-06T06:06:48.126Z,99951.00
2019-03-06T06:09:17.694Z,99953.00
2019-03-06T06:11:47.106Z,99948.00
2019-03-06T06:14:16.581Z,99948.00
2019-03-06T06:16:46.050Z,99940.00
2019-03-06T06:19:15.460Z,99936.00
2019-03-06T06:21:58.837Z,99930.00
2019-03-06T06:24:28.345Z,99928.00
2019-03-06T06:26:57.918Z,99925.00
2019-03-06T06:29:27.387Z,99912.00
2019-03-06T06:31:56.971Z,99913.00
2019-03-06T06:34:26.467Z,99909.00
2019-03-06T06:36:55.901Z,99914.00
2019-03-06T06:39:25.349Z,99908.00
2019-03-06T06:41:54.791Z,99895.00
2019-03-06T06:44:24.316Z,99882.00
2019-03-06T06:46:53.801Z,99882.00
2019-03-06T06:49:23.261Z,99881.00
2019-03-06T06:52:18.439Z,99866.00
2019-03-06T06:55:19.383Z,99865.00
2019-03-06T06:58:17.390Z,99864.00
2019-03-06T07:01:07.027Z,99860.00
2019-03-06T07:04:26.415Z,99860.00
2019-03-06T07:07:14.050Z,99854.00
2019-03-06T07:09:47.733Z,99851.00
2019-03-06T07:12:27.968Z,99845.00
2019-03-06T07:14:59.107Z,99853.00
2019-03-06T07:20:30.782Z,99853.00
2019-03-06T07:23:17.832Z,99843.00
2019-03-06T07:25:57.677Z,99843.00
2019-03-06T07:28:28.742Z,99829.00
2019-03-06T07:30:59.796Z,99850.00
2019-03-06T07:33:30.895Z,99830.00
2019-03-06T07:36:04.665Z,99830.00
2019-03-06T07:38:34.384Z,99830.00
2019-03-06T07:41:11.597Z,99823.00
2019-03-06T07:43:57.793Z,99819.00
2019-03-06T07:46:31.776Z,99820.00
2019-03-06T07:49:02.892Z,99807.00
2019-03-06T07:51:34.186Z,99807.00
2019-03-06T07:54:12.647Z,99811.00
2019-03-06T07:56:46.697Z,99812.00
2019-03-06T07:59:15.977Z,99796.00
2019-03-06T08:01:55.839Z,99822.00
2019-03-06T08:04:25.279Z,99811.00
2019-03-06T08:06:56.444Z,99799.00
2019-03-06T08:09:26.104Z,99801.00
2019-03-06T08:11:57.219Z,99790.00
2019-03-06T08:14:40.593Z,99806.00
2019-03-06T08:17:11.820Z,99800.00
2019-03-06T08:20:01.409Z,99792.00
2019-03-06T08:22:49.006Z,99802.00
2019-03-06T08:25:20.187Z,99797.00
2019-03-06T08:27:49.979Z,99794.00
2019-03-06T08:30:19.600Z,99795.00
2019-03-06T08:32:49.241Z,99786.00
2019-03-06T08:35:18.768Z,99779.00
2019-03-06T08:37:48.195Z,99786.00
2019-03-06T08:40:17.690Z,99771.00
2019-03-06T08:42:47.108Z,99750.00
2019-03-06T08:45:18.366Z,99751.00
2019-03-06T08:47:51.681Z,99745.00
2019-03-06T08:50:22.627Z,99739.00
2019-03-06T08:53:08.677Z,99727.00
2019-03-06T08:55:51.686Z,99723.00
2019-03-06T08:58:22.986Z,99704.00
2019-03-06T09:01:10.752Z,99704.00
2019-03-06T09:03:42.012Z,99705.00
2019-03-06T09:06:19.269Z,99701.00
2019-03-06T09:08:50.439Z,99706.00
2019-03-06T09:11:24.360Z,99687.00
2019-03-06T09:13:57.953Z,99693.00
2019-03-06T09:16:40.954Z,99695.00
2019-03-06T09:19:28.290Z,99698.00
2019-03-06T09:22:02.358Z,99692.00
2019-03-06T09:24:36.164Z,99696.00
2019-03-06T09:27:16.905Z,99677.00
2019-03-06T09:30:04.224Z,99681.00
2019-03-06T09:32:50.659Z,99678.00
2019-03-06T09:35:30.983Z,99677.00
2019-03-06T09:38:11.209Z,99679.00
2019-03-06T09:40:41.185Z,99678.00
2019-03-06T09:43:17.992Z,99675.00
2019-03-06T09:45:49.133Z,99670.00
2019-03-06T09:48:35.061Z,99670.00
2019-03-06T09:51:09.014Z,99660.00
2019-03-06T09:53:43.278Z,99654.00
2019-03-06T09:56:20.254Z,99657.00
2019-03-06T09:59:00.471Z,99666.00
2019-03-06T10:01:31.593Z,99671.00
2019-03-06T10:04:18.843Z,99667.00
2019-03-06T10:06:52.807Z,99671.00
2019-03-06T10:09:24.092Z,99665.00
2019-03-06T10:12:10.041Z,99674.00
2019-03-06T10:14:43.958Z,99672.00
2019-03-06T10:17:17.609Z,99664.00
2019-03-06T10:19:51.572Z,99654.00
2019-03-06T10:22:21.155Z,99653.00
2019-03-06T10:24:50.621Z,99660.00
2019-03-06T10:27:20.172Z,99645.00
2019-03-06T10:29:49.618Z,99639.00
2019-03-06T10:32:19.208Z,99643.00
2019-03-06T10:34:48.777Z,99632.00
2019-03-06T10:37:18.334Z,99634.00
2019-03-06T10:39:48.730Z,99626.00
2019-03-06T10:42:18.408Z,99626.00
2019-03-06T10:44:49.346Z,99631.00
2019-03-06T10:47:19.116Z,99618.00
2019-03-06T10:49:48.703Z,99616.00
2019-03-06T10:52:18.300Z,99615.00
2019-03-06T10:54:47.830Z,99610.00
2019-03-06T10:57:17.466Z,99612.00
2019-03-06T10:59:47.155Z,99604.00
2019-03-06T11:02:16.863Z,99602.00
2019-03-06T11:04:48.188Z,99594.00
2019-03-06T11:07:18.552Z,99587.00
2019-03-06T11:09:48.240Z,99585.00
2019-03-06T11:12:17.770Z,99592.00
2019-03-06T11:14:47.401Z,99583.00
2019-03-06T11:17:17.102Z,99568.00
2019-03-06T11:19:46.957Z,99555.00
2019-03-06T11:22:16.622Z,99557.00
2019-03-06T11:24:46.299Z,99546.00
2019-03-06T11:27:15.965Z,99549.00
2019-03-06T11:29:45.551Z,99541.00
2019-03-06T11:32:15.435Z,99527.00
2019-03-06T11:34:45.506Z,99515.00
2019-03-06T11:37:15.182Z,99511.00
2019-03-06T11:39:44.691Z,99521.00
2019-03-06T11:42:14.260Z,99518.00
2019-03-06T11:44:43.771Z,99518.00
2019-03-06T11:47:13.367Z,99511.00
2019-03-06T11:49:42.832Z,99521.00
2019-03-06T11:52:12.340Z,99517.00
2019-03-06T11:54:41.808Z,99510.00
2019-03-06T11:57:11.719Z,99518.00
2019-03-06T11:59:41.358Z,99512.00
2019-03-06T12:02:11.537Z,99512.00
2019-03-06T12:04:41.321Z,99507.00
2019-03-06T12:07:10.882Z,99499.00
2019-03-06T12:09:40.457Z,99491.00
2019-03-06T12:12:10.099Z,99482.00
2019-03-06T12:14:39.922Z,99482.00
2019-03-06T12:17:09.507Z,99473.00
2019-03-06T12:19:39.279Z,99462.00
2019-03-06T12:22:08.906Z,99466.00
2019-03-06T12:24:38.415Z,99451.00
2019-03-06T12:27:08.081Z,99456.00
2019-03-06T12:29:37.545Z,99458.00
2019-03-06T12:32:07.991Z,99455.00
2019-03-06T12:34:37.527Z,99452.00
2019-03-06T12:37:07.224Z,99445.00
2019-03-06T12:39:36.805Z,99447.00
2019-03-06T12:42:13.975Z,99457.00
2019-03-06T12:44:37.813Z,99442.00
2019-03-06T12:47:07.497Z,99442.00
2019-03-06T12:49:37.103Z,99428.00
2019-03-06T12:52:06.592Z,99425.00
2019-03-06T12:54:36.111Z,99423.00
2019-03-06T12:57:06.659Z,99421.00
2019-03-06T12:59:36.111Z,99419.00
2019-03-06T13:02:05.726Z,99403.00
2019-03-06T13:04:35.194Z,99404.00
2019-03-06T13:07:04.789Z,99398.00
2019-03-06T13:09:34.298Z,99386.00
2019-03-06T13:12:03.969Z,99380.00
2019-03-06T13:14:33.587Z,99379.00
2019-03-06T13:17:22.511Z,99377.00
2019-03-06T13:19:52.166Z,99374.00
2019-03-06T13:22:21.853Z,99387.00
2019-03-06T13:24:51.562Z,99384.00
2019-03-06T13:27:21.100Z,99375.00
2019-03-06T13:29:50.640Z,99400.00
2019-03-06T13:32:21.797Z,99396.00
2019-03-06T13:34:52.383Z,99382.00
2019-03-06T13:37:22.646Z,99376.00
2019-03-06T13:39:52.263Z,99382.00
2019-03-06T13:42:21.770Z,99369.00
2019-03-06T13:44:51.323Z,99364.00
2019-03-06T13:47:20.869Z,99367.00
2019-03-06T13:49:50.627Z,99368.00
2019-03-06T13:52:20.201Z,99367.00
2019-03-06T13:54:49.910Z,99357.00
2019-03-06T13:57:19.431Z,99356.00
2019-03-06T13:59:48.856Z,99366.00
2019-03-06T14:02:18.598Z,99362.00
2019-03-06T14:04:48.042Z,99362.00
2019-03-06T14:07:17.576Z,99365.00
2019-03-06T14:09:47.051Z,99365.00
2019-03-06T14:12:16.579Z,99372.00
2019-03-06T14:14:46.079Z,99363.00
2019-03-06T14:17:15.794Z,99352.00
2019-03-06T14:19:45.746Z,99362.00
2019-03-06T14:22:15.359Z,99344.00
2019-03-06T14:24:44.957Z,99345.00
2019-03-06T14:27:14.587Z,99339.00
2019-03-06T14:29:44.217Z,99345.00
2019-03-06T14:32:15.404Z,99344.00
2019-03-06T14:34:44.943Z,99347.00
2019-03-06T14:37:14.486Z,99344.00
2019-03-06T14:39:44.020Z,99333.00
2019-03-06T14:42:13.681Z,99344.00
2019-03-06T14:44:43.320Z,99344.00
2019-03-06T14:47:15.527Z,99339.00
2019-03-06T14:49:45.162Z,99319.00
2019-03-06T14:52:14.694Z,99329.00
2019-03-06T14:54:44.412Z,99315.00
2019-03-06T14:57:14.071Z,99299.00
2019-03-06T14:59:43.719Z,99313.00
2019-03-06T15:02:13.574Z,99305.00
2019-03-06T15:04:43.064Z,99306.00
2019-03-06T15:07:12.598Z,99297.00
2019-03-06T15:09:42.148Z,99292.00
2019-03-06T15:12:11.722Z,99298.00
2019-03-06T15:14:41.352Z,99296.00
2019-03-06T15:17:13.814Z,99290.00
2019-03-06T15:19:43.281Z,99297.00
2019-03-06T15:22:12.755Z,99279.00
2019-03-06T15:24:42.340Z,99280.00
2019-03-06T15:27:11.898Z,99277.00
2019-03-06T15:29:41.636Z,99269.00
2019-03-06T15:32:11.254Z,99264.00
2019-03-06T15:34:40.866Z,99256.00
2019-03-06T15:37:10.491Z,99255.00
2019-03-06T15:39:47.427Z,99247.00
2019-03-06T15:42:11.915Z,99259.00
2019-03-06T15:44:41.513Z,99263.00
2019-03-06T15:47:11.599Z,99262.00
2019-03-06T15:49:41.148Z,99259.00
2019-03-06T15:52:10.879Z,99261.00
2019-03-06T15:54:41.069Z,99255.00
2019-03-06T15:57:10.837Z,99255.00
2019-03-06T15:59:40.584Z,99259.00
2019-03-06T16:02:10.223Z,99242.00
2019-03-06T16:04:39.726Z,99250.00
2019-03-06T16:07:09.415Z,99239.00
2019-03-06T16:09:39.322Z,99246.00
2019-03-06T16:12:08.903Z,99248.00
2019-03-06T16:14:38.521Z,99236.00
2019-03-06T16:17:08.038Z,99223.00
2019-03-06T16:19:37.561Z,99226.00
2019-03-06T16:22:07.420Z,99222.00
2019-03-06T16:24:37.669Z,99221.00
2019-03-06T16:27:07.250Z,99225.00
2019-03-06T16:29:37.184Z,99227.00
2019-03-06T16:32:07.054Z,99218.00
2019-03-06T16:34:36.506Z,99226.00
2019-03-06T16:37:06.379Z,99224.00
2019-03-06T16:39:36.074Z,99218.00
2019-03-06T16:42:06.085Z,99215.00
2019-03-06T16:44:35.728Z,99217.00
2019-03-06T16:47:06.877Z,99222.00
2019-03-06T16:49:36.756Z,99212.00
2019-03-06T16:52:06.457Z,99214.00
2019-03-06T16:54:36.000Z,99215.00
2019-03-06T16:57:05.711Z,99209.00
2019-03-06T16:59:35.185Z,99213.00
2019-03-06T17:02:05.336Z,99221.00
2019-03-06T17:04:35.004Z,99206.00
2019-03-06T17:07:04.653Z,99205.00
2019-03-06T17:09:34.391Z,99207.00
2019-03-06T17:12:04.044Z,99199.00
2019-03-06T17:14:33.868Z,99204.00
2019-03-06T17:17:03.636Z,99204.00
2019-03-06T17:19:33.093Z,99203.00
2019-03-06T17:22:02.827Z,99200.00
2019-03-06T17:24:32.474Z,99200.00
2019-03-06T17:27:02.171Z,99203.00
2019-03-06T17:29:31.849Z,99197.00
2019-03-06T17:32:01.543Z,99193.00
2019-03-06T17:34:31.189Z,99187.00
2019-03-06T17:37:01.410Z,99185.00
2019-03-06T17:39:31.122Z,99180.00
2019-03-06T17:42:00.687Z,99178.00
2019-03-06T17:44:30.367Z,99168.00
2019-03-06T17:46:59.990Z,99161.00
2019-03-06T17:49:29.532Z,99159.00
2019-03-06T17:51:58.994Z,99168.00
2019-03-06T17:54:28.790Z,99161.00
2019-03-06T17:56:58.415Z,99164.00
2019-03-06T17:59:28.209Z,99169.00
2019-03-06T18:01:57.856Z,99165.00
2019-03-06T18:04:27.432Z,99159.00
2019-03-06T18:06:57.019Z,99164.00
2019-03-06T18:09:26.534Z,99168.00
2019-03-06T18:11:57.890Z,99174.00
2019-03-06T18:14:27.571Z,99175.00
2019-03-06T18:16:57.016Z,99168.00
2019-03-06T18:19:26.535Z,99164.00
2019-03-06T18:21:56.051Z,99161.00
2019-03-06T18:24:25.538Z,99159.00
2019-03-06T18:26:55.319Z,99155.00
2019-03-06T18:29:24.754Z,99143.00
2019-03-06T18:31:54.380Z,99148.00
2019-03-06T18:34:23.903Z,99148.00
2019-03-06T18:36:53.501Z,99143.00
2019-03-06T18:39:23.093Z,99142.00
2019-03-06T18:41:52.731Z,99136.00
2019-03-06T18:44:22.362Z,99135.00
2019-03-06T18:46:51.939Z,99122.00
2019-03-06T18:49:21.419Z,99134.00
2019-03-06T18:51:51.051Z,99132.00
2019-03-06T18:54:20.558Z,99128.00
2019-03-06T18:56:50.288Z,99123.00
2019-03-06T18:59:19.833Z,99120.00
2019-03-06T19:01:49.293Z,99124.00
2019-03-06T19:04:18.777Z,99131.00
2019-03-06T19:06:48.279Z,99132.00
2019-03-06T19:09:19.731Z,99131.00
2019-03-06T19:11:49.023Z,99126.00
2019-03-06T19:14:18.719Z,99129.00
2019-03-06T19:16:48.232Z,99120.00
2019-03-06T19:19:17.689Z,99120.00
2019-03-06T19:21:47.268Z,99121.00
2019-03-06T19:24:16.596Z,99119.00
2019-03-06T19:26:46.226Z,99110.00
2019-03-06T19:29:15.714Z,99117.00
2019-03-06T19:31:45.245Z,99115.00
2019-03-06T19:34:14.840Z,99117.00
2019-03-06T19:36:44.639Z,99117.00
2019-03-06T19:39:14.319Z,99109.00
2019-03-06T19:41:43.915Z,99110.00
2019-03-06T19:44:13.501Z,99111.00
2019-03-06T19:46:42.871Z,99105.00
2019-03-06T19:49:13.923Z,99116.00
2019-03-06T19:51:51.206Z,99117.00
2019-03-06T19:54:14.797Z,99119.00
2019-03-06T19:56:44.364Z,99109.00
2019-03-06T19:59:13.929Z,99109.00
2019-03-06T20:01:43.434Z,99116.00
2019-03-06T20:04:13.132Z,99106.00
2019-03-06T20:06:42.744Z,99103.00
2019-03-06T20:09:25.064Z,99106.00
2019-03-06T20:11:54.681Z,99104.00
2019-03-06T20:14:24.243Z,99094.00
2019-03-06T20:16:53.743Z,99095.00
2019-03-06T20:19:23.304Z,99097.00
2019-03-06T20:21:53.157Z,99077.00
2019-03-06T20:24:22.711Z,99073.00
2019-03-06T20:26:52.411Z,99078.00
2019-03-06T20:29:21.954Z,99072.00
2019-03-06T20:31:51.511Z,99069.00
2019-03-06T20:34:21.032Z,99075.00
2019-03-06T20:36:50.741Z,99065.00
2019-03-06T20:39:20.273Z,99065.00
2019-03-06T20:41:49.870Z,99058.00
2019-03-06T20:44:19.471Z,99056.00
2019-03-06T20:46:48.983Z,99056.00
2019-03-06T20:49:18.434Z,99066.00
2019-03-06T20:51:48.072Z,99070.00
2019-03-06T20:54:17.515Z,99065.00
2019-03-06T20:56:46.984Z,99062.00
2019-03-06T20:59:16.446Z,99059.00
2019-03-06T21:01:46.345Z,99056.00
2019-03-06T21:04:15.968Z,99049.00
2019-03-06T21:06:45.911Z,99052.00
2019-03-06T21:09:17.065Z,99052.00
2019-03-06T21:11:46.928Z,99056.00
2019-03-06T21:14:16.429Z,99052.00
2019-03-06T21:16:45.882Z,99047.00
2019-03-06T21:19:15.362Z,99050.00
2019-03-06T21:21:44.886Z,99044.00
2019-03-06T21:24:14.548Z,99037.00
2019-03-06T21:26:44.270Z,99040.00
2019-03-06T21:29:13.804Z,99032.00
2019-03-06T21:31:43.310Z,99026.00
2019-03-06T21:34:12.759Z,99020.00
2019-03-06T21:36:42.299Z,99022.00
2019-03-06T21:39:23.404Z,99014.00
2019-03-06T21:41:52.998Z,99023.00
2019-03-06T21:44:22.516Z,99011.00
2019-03-06T21:46:52.031Z,99014.00
2019-03-06T21:49:21.321Z,99011.00
2019-03-06T21:51:50.782Z,99011.00
2019-03-06T21:54:20.648Z,99000.00
2019-03-06T21:56:50.102Z,98999.00
2019-03-06T21:59:19.556Z,99001.00
2019-03-06T22:01:49.014Z,98991.00
2019-03-06T22:04:18.555Z,98988.00
2019-03-06T22:06:48.030Z,98986.00
2019-03-06T22:09:17.910Z,98983.00
2019-03-06T22:11:47.409Z,98977.00
2019-03-06T22:14:16.860Z,98973.00
2019-03-06T22:16:46.485Z,98974.00
2019-03-06T22:19:15.999Z,98978.00
2019-03-06T22:21:45.540Z,98974.00
2019-03-06T22:24:15.023Z,98968.00
2019-03-06T22:26:44.550Z,98966.00
2019-03-06T22:29:14.098Z,98967.00
2019-03-06T22:31:43.576Z,98962.00
2019-03-06T22:34:13.014Z,98968.00
2019-03-06T22:36:42.656Z,98953.00
2019-03-06T22:39:12.742Z,98937.00
2019-03-06T22:41:42.314Z,98944.00
2019-03-06T22:44:11.805Z,98946.00
2019-03-06T22:46:41.477Z,98938.00
2019-03-06T22:49:10.917Z,98938.00
2019-03-06T22:51:40.645Z,98941.00
2019-03-06T22:54:10.146Z,98936.00
2019-03-06T22:56:39.646Z,98928.00
2019-03-06T22:59:09.094Z,98924.00
2019-03-06T23:01:39.850Z,98913.00
2019-03-06T23:04:09.511Z,98908.00
2019-03-06T23:06:39.043Z,98906.00
2019-03-06T23:09:10.646Z,98902.00
2019-03-06T23:11:40.829Z,98902.00
2019-03-06T23:14:10.493Z,98894.00
2019-03-06T23:16:40.030Z,98899.00
2019-03-06T23:19:09.707Z,98888.00
2019-03-06T23:21:39.166Z,98885.00
2019-03-06T23:24:08.651Z,98878.00
2019-03-06T23:26:42.724Z,98871.00
2019-03-06T23:29:09.362Z,98863.00
2019-03-06T23:31:39.242Z,98862.00
2019-03-06T23:34:09.399Z,98866.00
2019-03-06T23:36:38.844Z,98863.00
2019-03-06T23:39:11.826Z,98872.00
2019-03-06T23:41:41.428Z,98863.00
2019-03-06T23:44:10.960Z,98863.00
2019-03-06T23:46:40.414Z,98853.00
2019-03-06T23:49:09.981Z,98837.00
2019-03-06T23:51:41.127Z,98838.00
2019-03-06T23:54:10.575Z,98836.00
2019-03-06T23:56:40.182Z,98836.00
2019-03-06T23:59:09.644Z,98831.00
